createdAt,value
2022-12-11T00:00:31.749Z,66.80
2022-12-11T00:03:10.287Z,66.70
2022-12-11T00:05:43.030Z,66.80
2022-12-11T00:08:11.145Z,66.70
2022-12-11T00:10:39.248Z,66.70
2022-12-11T00:13:07.266Z,66.80
2022-12-11T00:15:35.370Z,66.70
2022-12-11T00:18:03.409Z,66.70
2022-12-11T00:20:32.833Z,66.70
2022-12-11T00:23:00.915Z,66.70
2022-12-11T00:25:29.047Z,66.70
2022-12-11T00:27:57.056Z,66.70
2022-12-11T00:30:25.154Z,66.70
2022-12-11T00:32:53.240Z,66.60
2022-12-11T00:35:21.496Z,66.60
2022-12-11T00:37:50.930Z,66.70
2022-12-11T00:40:19.160Z,66.60
2022-12-11T00:42:47.181Z,66.60
2022-12-11T00:45:15.620Z,66.60
2022-12-11T00:47:43.723Z,66.60
2022-12-11T00:50:12.028Z,66.60
2022-12-11T00:52:40.719Z,66.60
2022-12-11T00:55:11.755Z,66.60
2022-12-11T00:57:39.991Z,66.60
2022-12-11T01:00:09.242Z,66.60
2022-12-11T01:02:37.299Z,66.60
2022-12-11T01:05:05.978Z,66.60
2022-12-11T01:07:34.223Z,66.60
2022-12-11T01:10:21.903Z,66.70
2022-12-11T01:12:54.118Z,66.60
2022-12-11T01:15:22.999Z,66.70
2022-12-11T01:17:51.089Z,66.60
2022-12-11T01:20:19.389Z,66.60
2022-12-11T01:22:47.477Z,66.60
2022-12-11T01:25:15.602Z,66.70
2022-12-11T01:27:43.635Z,66.70
2022-12-11T01:30:14.425Z,66.70
2022-12-11T01:32:42.549Z,66.70
2022-12-11T01:35:12.430Z,66.70
2022-12-11T01:37:40.790Z,66.70
2022-12-11T01:40:09.861Z,66.70
2022-12-11T01:42:37.972Z,66.80
2022-12-11T01:45:30.388Z,66.70
2022-12-11T01:48:01.729Z,66.70
2022-12-11T01:50:29.994Z,66.70
2022-12-11T01:52:58.056Z,66.70
2022-12-11T01:55:26.296Z,66.70
2022-12-11T01:57:54.389Z,66.70
2022-12-11T02:00:23.845Z,66.80
2022-12-11T02:02:52.133Z,66.70
2022-12-11T02:05:20.299Z,66.70
2022-12-11T02:07:51.111Z,66.80
2022-12-11T02:10:19.311Z,66.80
2022-12-11T02:12:56.678Z,66.80
2022-12-11T02:15:31.513Z,66.80
2022-12-11T02:18:04.609Z,66.80
2022-12-11T02:20:34.500Z,66.80
2022-12-11T02:23:23.193Z,66.90
2022-12-11T02:25:54.126Z,66.90
2022-12-11T02:28:25.354Z,66.90
2022-12-11T02:30:56.534Z,66.90
2022-12-11T02:33:27.698Z,66.90
2022-12-11T02:35:55.727Z,66.90
2022-12-11T02:38:25.316Z,66.90
2022-12-11T02:40:53.530Z,66.90
2022-12-11T02:43:23.451Z,66.90
2022-12-11T02:45:51.734Z,66.90
2022-12-11T02:48:19.866Z,67.00
2022-12-11T02:50:49.111Z,67.00
2022-12-11T02:53:18.274Z,67.00
2022-12-11T02:55:46.687Z,67.00
2022-12-11T02:58:15.747Z,67.00
2022-12-11T03:00:45.330Z,67.00
2022-12-11T03:03:16.383Z,67.10
2022-12-11T03:05:46.204Z,67.00
2022-12-11T03:08:18.684Z,67.10
2022-12-11T03:10:47.080Z,67.10
2022-12-11T03:13:15.883Z,67.10
2022-12-11T03:15:49.454Z,67.10
2022-12-11T03:18:20.199Z,67.00
2022-12-11T03:20:51.007Z,67.00
2022-12-11T03:23:24.631Z,67.10
2022-12-11T03:25:55.648Z,67.10
2022-12-11T03:28:27.496Z,67.20
2022-12-11T03:31:12.321Z,67.20
2022-12-11T03:33:41.484Z,67.20
2022-12-11T03:36:11.462Z,67.20
2022-12-11T03:38:42.732Z,67.20
2022-12-11T03:41:10.853Z,67.20
2022-12-11T03:43:38.916Z,67.20
2022-12-11T03:46:08.681Z,67.20
2022-12-11T03:48:40.639Z,67.10
2022-12-11T03:51:09.253Z,67.20
2022-12-11T03:53:37.546Z,67.20
2022-12-11T03:56:06.063Z,67.20
2022-12-11T03:58:34.178Z,67.20
2022-12-11T04:01:02.468Z,67.20
2022-12-11T04:03:31.884Z,67.20
2022-12-11T04:06:03.080Z,67.20
2022-12-11T04:08:31.157Z,67.20
2022-12-11T04:11:13.078Z,67.20
2022-12-11T04:13:41.357Z,67.20
2022-12-11T04:16:08.519Z,67.30
2022-12-11T04:18:55.608Z,67.20
2022-12-11T04:21:55.790Z,67.30
2022-12-11T04:24:29.645Z,67.20
2022-12-11T04:26:57.673Z,67.20
2022-12-11T04:29:25.825Z,67.30
2022-12-11T04:31:53.956Z,67.20
2022-12-11T04:34:23.426Z,67.30
2022-12-11T04:36:51.768Z,67.20
2022-12-11T04:39:19.834Z,67.20
2022-12-11T04:41:47.883Z,67.20
2022-12-11T04:44:29.834Z,67.20
2022-12-11T04:46:57.952Z,67.30
2022-12-11T04:49:27.384Z,67.30
2022-12-11T04:51:55.436Z,67.30
2022-12-11T04:54:23.513Z,67.20
2022-12-11T04:56:51.600Z,67.30
2022-12-11T04:59:19.683Z,67.30
2022-12-11T05:01:55.918Z,67.30
2022-12-11T05:04:23.992Z,67.30
2022-12-11T05:06:53.678Z,67.40
2022-12-11T05:09:21.896Z,67.00
2022-12-11T05:11:49.969Z,66.90
2022-12-11T05:14:18.013Z,66.30
2022-12-11T05:16:46.064Z,65.90
2022-12-11T05:19:16.417Z,65.30
2022-12-11T05:21:44.540Z,64.60
2022-12-11T05:24:19.822Z,63.70
2022-12-11T05:26:53.828Z,63.00
2022-12-11T05:29:24.743Z,62.40
2022-12-11T05:31:54.914Z,62.20
2022-12-11T05:34:22.993Z,61.80
2022-12-11T05:36:51.091Z,61.50
2022-12-11T05:39:20.949Z,61.60
2022-12-11T05:41:49.010Z,61.30
2022-12-11T05:44:17.039Z,61.30
2022-12-11T05:46:45.200Z,61.20
2022-12-11T05:49:13.271Z,61.00
2022-12-11T05:51:41.606Z,61.00
2022-12-11T05:54:10.576Z,60.70
2022-12-11T05:56:42.779Z,60.80
2022-12-11T05:59:10.884Z,60.60
2022-12-11T06:01:40.007Z,60.70
2022-12-11T06:04:08.661Z,60.60
2022-12-11T06:06:36.833Z,60.50
2022-12-11T06:09:05.308Z,60.40
2022-12-11T06:11:34.061Z,60.50
2022-12-11T06:14:11.170Z,60.50
2022-12-11T06:16:45.197Z,60.40
2022-12-11T06:19:15.890Z,60.40
2022-12-11T06:21:44.049Z,60.40
2022-12-11T06:24:12.240Z,60.30
2022-12-11T06:26:40.382Z,60.20
2022-12-11T06:29:12.942Z,60.00
2022-12-11T06:31:41.387Z,60.10
2022-12-11T06:34:10.075Z,60.00
2022-12-11T06:36:38.159Z,60.10
2022-12-11T06:39:06.213Z,60.10
2022-12-11T06:41:34.338Z,60.00
2022-12-11T06:44:06.003Z,60.10
2022-12-11T06:46:35.747Z,60.10
2022-12-11T06:49:06.587Z,59.90
2022-12-11T06:51:34.641Z,60.00
2022-12-11T06:54:02.661Z,60.00
2022-12-11T06:56:30.764Z,59.90
2022-12-11T06:59:07.779Z,59.80
2022-12-11T07:01:37.378Z,59.80
2022-12-11T07:04:05.482Z,59.70
2022-12-11T07:06:36.678Z,59.60
2022-12-11T07:09:05.208Z,59.60
2022-12-11T07:11:33.326Z,59.60
2022-12-11T07:14:01.667Z,59.60
2022-12-11T07:16:29.813Z,59.50
2022-12-11T07:18:59.287Z,59.60
2022-12-11T07:21:27.335Z,59.60
2022-12-11T07:23:58.783Z,59.50
2022-12-11T07:26:26.872Z,59.50
2022-12-11T07:28:57.460Z,59.30
2022-12-11T07:31:26.523Z,59.10
2022-12-11T07:33:55.364Z,59.10
2022-12-11T07:36:24.862Z,59.20
2022-12-11T07:38:53.029Z,59.10
2022-12-11T07:41:27.784Z,59.20
2022-12-11T07:43:55.838Z,59.20
2022-12-11T07:46:25.809Z,59.20
2022-12-11T07:48:53.986Z,58.90
2022-12-11T07:51:26.529Z,58.90
2022-12-11T07:53:55.650Z,58.90
2022-12-11T07:56:23.757Z,58.90
2022-12-11T07:58:51.874Z,58.90
2022-12-11T08:01:21.446Z,59.00
2022-12-11T08:03:50.726Z,58.80
2022-12-11T08:06:18.825Z,58.70
2022-12-11T08:08:48.356Z,58.90
2022-12-11T08:11:16.410Z,58.90
2022-12-11T08:13:44.529Z,58.70
2022-12-11T08:16:14.611Z,58.70
2022-12-11T08:18:44.150Z,58.70
2022-12-11T08:21:13.257Z,58.60
2022-12-11T08:23:41.356Z,58.70
2022-12-11T08:26:12.416Z,58.80
2022-12-11T08:28:40.518Z,58.70
2022-12-11T08:31:09.764Z,58.50
2022-12-11T08:33:38.091Z,58.60
2022-12-11T08:36:10.350Z,58.60
2022-12-11T08:38:38.485Z,58.50
2022-12-11T08:41:11.578Z,58.50
2022-12-11T08:43:39.860Z,58.60
2022-12-11T08:46:08.314Z,58.40
2022-12-11T08:48:36.689Z,58.50
2022-12-11T08:51:05.933Z,58.40
2022-12-11T08:53:34.267Z,58.50
2022-12-11T08:56:11.569Z,58.40
2022-12-11T08:58:40.973Z,58.30
2022-12-11T09:01:10.074Z,58.30
2022-12-11T09:03:38.265Z,58.30
2022-12-11T09:06:07.299Z,58.70
2022-12-11T09:08:35.531Z,59.20
2022-12-11T09:11:07.584Z,59.80
2022-12-11T09:13:35.619Z,60.30
2022-12-11T09:16:09.334Z,60.80
2022-12-11T09:18:37.636Z,61.50
2022-12-11T09:21:06.956Z,61.90
2022-12-11T09:23:35.061Z,62.40
2022-12-11T09:26:05.535Z,62.70
2022-12-11T09:28:33.690Z,63.10
2022-12-11T09:31:01.968Z,63.30
2022-12-11T09:33:31.622Z,63.70
2022-12-11T09:36:00.386Z,64.00
2022-12-11T09:38:28.486Z,64.10
2022-12-11T09:40:59.582Z,64.10
2022-12-11T09:43:34.101Z,64.30
2022-12-11T09:46:02.579Z,64.40
2022-12-11T09:48:32.407Z,64.60
2022-12-11T09:51:00.689Z,64.70
2022-12-11T09:53:34.297Z,64.80
2022-12-11T09:56:06.290Z,64.90
2022-12-11T09:58:38.078Z,65.00
2022-12-11T10:01:16.329Z,65.20
2022-12-11T10:04:03.919Z,65.30
2022-12-11T10:06:34.535Z,65.40
2022-12-11T10:09:10.032Z,65.70
2022-12-11T10:11:57.232Z,65.80
2022-12-11T10:14:30.258Z,65.80
2022-12-11T10:17:01.080Z,65.80
2022-12-11T10:19:31.061Z,65.90
2022-12-11T10:21:59.218Z,65.90
2022-12-11T10:25:07.734Z,66.00
2022-12-11T10:27:21.265Z,66.00
2022-12-11T10:29:57.352Z,66.00
2022-12-11T10:32:26.344Z,66.10
2022-12-11T10:35:01.758Z,66.10
2022-12-11T10:37:29.853Z,66.20
2022-12-11T10:39:58.108Z,66.20
2022-12-11T10:42:26.230Z,66.10
2022-12-11T10:45:01.367Z,66.30
2022-12-11T10:47:29.856Z,66.30
2022-12-11T10:50:00.514Z,66.30
2022-12-11T10:52:31.661Z,66.30
2022-12-11T10:55:01.704Z,66.30
2022-12-11T10:57:31.670Z,66.30
2022-12-11T10:59:59.772Z,66.30
2022-12-11T11:02:29.402Z,66.10
2022-12-11T11:04:59.732Z,66.10
2022-12-11T11:07:28.410Z,66.30
2022-12-11T11:10:07.678Z,66.30
2022-12-11T11:12:39.153Z,66.40
2022-12-11T11:15:18.801Z,66.20
2022-12-11T11:17:54.610Z,66.20
2022-12-11T11:20:25.833Z,66.20
2022-12-11T11:22:55.141Z,66.20
2022-12-11T11:25:23.814Z,66.20
2022-12-11T11:27:53.159Z,66.20
2022-12-11T11:30:23.412Z,66.20
2022-12-11T11:32:55.905Z,66.20
2022-12-11T11:35:26.652Z,66.20
2022-12-11T11:38:05.632Z,66.20
2022-12-11T11:40:37.458Z,66.20
2022-12-11T11:43:08.621Z,66.20
2022-12-11T11:45:40.861Z,66.30
2022-12-11T11:48:25.699Z,66.30
2022-12-11T11:51:06.740Z,66.30
2022-12-11T11:53:37.465Z,66.30
2022-12-11T11:56:08.448Z,66.30
2022-12-11T11:58:40.314Z,66.30
2022-12-11T12:01:13.602Z,66.30
2022-12-11T12:03:41.767Z,66.30
2022-12-11T12:06:15.267Z,66.30
2022-12-11T12:08:51.162Z,66.20
2022-12-11T12:11:38.642Z,66.20
2022-12-11T12:14:43.654Z,66.20
2022-12-11T12:17:07.664Z,66.20
2022-12-11T12:19:44.401Z,66.20
2022-12-11T12:22:25.689Z,66.20
2022-12-11T12:24:58.976Z,66.20
2022-12-11T12:27:51.670Z,66.20
2022-12-11T12:30:23.037Z,66.20
2022-12-11T12:32:59.534Z,66.10
2022-12-11T12:35:34.653Z,66.10
2022-12-11T12:38:07.647Z,65.90
2022-12-11T12:40:37.272Z,65.70
2022-12-11T12:43:07.712Z,65.00
2022-12-11T12:45:38.391Z,64.40
2022-12-11T12:48:10.435Z,63.60
2022-12-11T12:50:39.709Z,63.00
2022-12-11T12:53:09.147Z,62.20
2022-12-11T12:55:37.214Z,61.70
2022-12-11T12:58:06.435Z,61.40
2022-12-11T13:00:35.370Z,60.90
2022-12-11T13:03:04.294Z,60.70
2022-12-11T13:05:36.618Z,60.50
2022-12-11T13:08:06.102Z,60.50
2022-12-11T13:10:36.406Z,60.30
2022-12-11T13:13:05.484Z,60.20
2022-12-11T13:15:35.980Z,60.10
2022-12-11T13:18:05.461Z,59.90
2022-12-11T13:20:34.239Z,59.60
2022-12-11T13:23:18.153Z,59.70
2022-12-11T13:25:57.591Z,59.50
2022-12-11T13:28:30.134Z,59.50
2022-12-11T13:31:25.166Z,59.50
2022-12-11T13:33:54.476Z,59.40
2022-12-11T13:36:31.396Z,59.30
2022-12-11T13:39:02.326Z,59.30
2022-12-11T13:41:31.872Z,59.10
2022-12-11T13:44:00.032Z,59.10
2022-12-11T13:46:29.441Z,59.60
2022-12-11T13:49:07.245Z,60.10
2022-12-11T13:51:37.148Z,60.80
2022-12-11T13:54:17.387Z,61.30
2022-12-11T13:56:57.071Z,62.00
2022-12-11T13:59:27.420Z,62.50
2022-12-11T14:01:57.055Z,62.80
2022-12-11T14:04:25.201Z,63.10
2022-12-11T14:06:57.071Z,63.40
2022-12-11T14:09:26.401Z,63.70
2022-12-11T14:11:57.317Z,63.90
2022-12-11T14:14:27.561Z,63.90
2022-12-11T14:16:55.701Z,63.70
2022-12-11T14:19:24.882Z,63.20
2022-12-11T14:22:02.684Z,62.60
2022-12-11T14:24:32.216Z,62.00
2022-12-11T14:27:01.708Z,61.30
2022-12-11T14:29:30.949Z,61.40
2022-12-11T14:32:09.827Z,61.60
2022-12-11T14:34:40.044Z,62.20
2022-12-11T14:37:10.681Z,62.60
2022-12-11T14:39:40.619Z,63.00
2022-12-11T14:42:16.240Z,63.40
2022-12-11T14:44:48.953Z,63.70
2022-12-11T14:47:17.985Z,63.90
2022-12-11T14:49:50.738Z,64.00
2022-12-11T14:52:20.108Z,63.80
2022-12-11T14:54:52.737Z,63.20
2022-12-11T14:57:26.036Z,62.70
2022-12-11T14:59:57.285Z,62.10
2022-12-11T15:02:28.538Z,61.30
2022-12-11T15:05:13.866Z,61.40
2022-12-11T15:07:56.885Z,62.00
2022-12-11T15:10:35.537Z,62.60
2022-12-11T15:13:05.254Z,63.10
2022-12-11T15:15:34.592Z,63.50
2022-12-11T15:18:04.826Z,63.90
2022-12-11T15:20:32.888Z,64.00
2022-12-11T15:23:02.616Z,64.10
2022-12-11T15:25:32.618Z,64.40
2022-12-11T15:28:01.256Z,63.90
2022-12-11T15:30:33.303Z,63.20
2022-12-11T15:33:06.456Z,62.70
2022-12-11T15:35:34.566Z,62.10
2022-12-11T15:38:05.192Z,61.30
2022-12-11T15:40:39.792Z,61.30
2022-12-11T15:43:07.890Z,61.70
2022-12-11T15:45:37.336Z,62.30
2022-12-11T15:48:05.755Z,62.70
2022-12-11T15:50:33.889Z,63.10
2022-12-11T15:53:01.942Z,63.40
2022-12-11T15:55:34.276Z,63.80
2022-12-11T15:58:03.798Z,64.00
2022-12-11T16:00:53.235Z,64.20
2022-12-11T16:03:38.208Z,64.30
2022-12-11T16:06:07.047Z,63.80
2022-12-11T16:08:42.670Z,63.10
2022-12-11T16:11:16.764Z,62.40
2022-12-11T16:13:44.799Z,61.60
2022-12-11T16:16:13.080Z,61.50
2022-12-11T16:18:42.604Z,61.70
2022-12-11T16:21:28.566Z,62.30
2022-12-11T16:23:57.150Z,62.80
2022-12-11T16:26:28.377Z,63.00
2022-12-11T16:28:56.425Z,63.30
2022-12-11T16:31:24.530Z,63.70
2022-12-11T16:33:54.048Z,63.90
2022-12-11T16:36:22.113Z,64.00
2022-12-11T16:38:53.830Z,64.10
2022-12-11T16:41:22.903Z,63.90
2022-12-11T16:43:51.105Z,63.30
2022-12-11T16:46:19.478Z,62.60
2022-12-11T16:48:51.042Z,62.10
2022-12-11T16:51:20.801Z,61.30
2022-12-11T16:53:48.869Z,61.40
2022-12-11T16:56:16.918Z,61.80
2022-12-11T16:59:01.161Z,62.20
2022-12-11T17:01:32.317Z,62.60
2022-12-11T17:04:00.558Z,63.00
2022-12-11T17:06:30.260Z,63.40
2022-12-11T17:08:58.295Z,63.60
2022-12-11T17:11:26.343Z,63.80
2022-12-11T17:13:55.099Z,63.80
2022-12-11T17:16:24.941Z,63.60
2022-12-11T17:18:53.084Z,63.00
2022-12-11T17:21:22.238Z,62.40
2022-12-11T17:23:51.737Z,61.80
2022-12-11T17:26:20.269Z,61.10
2022-12-11T17:28:48.362Z,61.20
2022-12-11T17:31:18.144Z,61.50
2022-12-11T17:33:46.365Z,62.00
2022-12-11T17:36:18.282Z,62.40
2022-12-11T17:38:49.529Z,62.80
2022-12-11T17:41:20.966Z,63.10
2022-12-11T17:43:49.474Z,63.40
2022-12-11T17:46:18.155Z,63.60
2022-12-11T17:48:46.360Z,63.60
2022-12-11T17:51:20.953Z,63.40
2022-12-11T17:53:49.057Z,62.90
2022-12-11T17:56:20.745Z,62.20
2022-12-11T17:58:48.849Z,61.50
2022-12-11T18:01:17.083Z,61.00
2022-12-11T18:03:45.297Z,61.10
2022-12-11T18:06:15.081Z,61.40
2022-12-11T18:08:43.397Z,61.90
2022-12-11T18:11:12.318Z,62.30
2022-12-11T18:13:49.120Z,62.60
2022-12-11T18:16:33.077Z,62.90
2022-12-11T18:19:08.375Z,63.30
2022-12-11T18:21:40.413Z,63.50
2022-12-11T18:24:10.140Z,63.70
2022-12-11T18:26:38.690Z,63.80
2022-12-11T18:29:08.117Z,64.00
2022-12-11T18:31:42.019Z,64.10
2022-12-11T18:34:11.535Z,64.20
2022-12-11T18:36:41.160Z,64.40
2022-12-11T18:39:11.329Z,64.40
2022-12-11T18:41:39.985Z,64.50
2022-12-11T18:44:10.144Z,64.60
2022-12-11T18:46:39.621Z,64.60
2022-12-11T18:49:07.840Z,64.70
2022-12-11T18:51:35.970Z,64.70
2022-12-11T18:54:04.053Z,64.80
2022-12-11T18:56:32.133Z,64.80
2022-12-11T18:59:02.807Z,64.80
2022-12-11T19:01:33.103Z,64.80
2022-12-11T19:04:05.389Z,64.90
2022-12-11T19:06:36.114Z,64.90
2022-12-11T19:09:04.725Z,64.90
2022-12-11T19:11:33.044Z,64.90
2022-12-11T19:14:01.175Z,65.00
2022-12-11T19:16:35.866Z,65.00
2022-12-11T19:19:05.103Z,65.00
2022-12-11T19:21:35.562Z,65.00
2022-12-11T19:24:10.784Z,65.00
2022-12-11T19:26:39.055Z,65.00
2022-12-11T19:29:07.207Z,65.00
2022-12-11T19:31:36.665Z,65.10
2022-12-11T19:34:07.958Z,65.10
2022-12-11T19:36:37.199Z,65.20
2022-12-11T19:39:11.348Z,65.20
2022-12-11T19:41:41.138Z,65.20
2022-12-11T19:44:09.456Z,65.20
2022-12-11T19:46:38.950Z,65.20
2022-12-11T19:49:07.188Z,65.20
2022-12-11T19:51:40.821Z,65.20
2022-12-11T19:54:09.575Z,65.20
2022-12-11T19:56:38.120Z,65.20
2022-12-11T19:59:07.049Z,65.10
2022-12-11T20:01:36.287Z,65.10
2022-12-11T20:04:06.862Z,65.10
2022-12-11T20:06:35.782Z,65.10
2022-12-11T20:09:04.076Z,65.20
2022-12-11T20:11:33.037Z,65.20
2022-12-11T20:14:01.140Z,65.20
2022-12-11T20:16:53.827Z,65.20
2022-12-11T20:19:18.752Z,65.20
2022-12-11T20:21:46.832Z,65.20
2022-12-11T20:24:14.909Z,65.20
2022-12-11T20:26:43.047Z,65.20
2022-12-11T20:29:14.408Z,65.10
2022-12-11T20:31:42.939Z,65.20
2022-12-11T20:34:11.588Z,65.20
2022-12-11T20:36:40.989Z,65.20
2022-12-11T20:39:09.049Z,65.20
2022-12-11T20:41:37.173Z,65.10
2022-12-11T20:44:05.304Z,65.10
2022-12-11T20:46:33.354Z,65.20
2022-12-11T20:49:10.468Z,65.20
2022-12-11T20:51:39.949Z,65.20
2022-12-11T20:54:08.006Z,65.20
2022-12-11T20:56:36.173Z,65.20
2022-12-11T20:59:04.220Z,65.10
2022-12-11T21:01:33.105Z,65.10
2022-12-11T21:04:01.268Z,65.10
2022-12-11T21:06:31.558Z,65.20
2022-12-11T21:09:01.568Z,65.10
2022-12-11T21:11:29.714Z,65.10
2022-12-11T21:13:58.124Z,65.20
2022-12-11T21:16:26.272Z,65.10
2022-12-11T21:18:54.342Z,65.10
2022-12-11T21:21:22.363Z,65.00
2022-12-11T21:23:50.461Z,65.10
2022-12-11T21:26:19.856Z,65.10
2022-12-11T21:28:47.976Z,65.10
2022-12-11T21:31:17.366Z,65.20
2022-12-11T21:33:45.671Z,65.10
2022-12-11T21:36:14.168Z,65.10
2022-12-11T21:38:43.347Z,65.10
2022-12-11T21:41:13.616Z,65.10
2022-12-11T21:44:40.947Z,65.00
2022-12-11T21:46:34.432Z,65.10
2022-12-11T21:49:02.549Z,65.10
2022-12-11T21:51:36.503Z,65.10
2022-12-11T21:54:06.329Z,65.00
2022-12-11T21:56:34.425Z,65.00
2022-12-11T21:59:03.961Z,65.00
2022-12-11T22:01:33.587Z,65.10
2022-12-11T22:04:01.801Z,65.10
2022-12-11T22:06:29.926Z,65.00
2022-12-11T22:08:58.403Z,65.00
2022-12-11T22:11:30.668Z,65.00
2022-12-11T22:13:58.954Z,65.10
2022-12-11T22:16:28.417Z,65.00
2022-12-11T22:18:56.475Z,65.10
2022-12-11T22:21:24.573Z,65.10
2022-12-11T22:23:52.712Z,65.10
2022-12-11T22:26:23.811Z,65.10
2022-12-11T22:28:52.083Z,65.00
2022-12-11T22:31:21.355Z,65.20
2022-12-11T22:33:55.052Z,65.10
2022-12-11T22:36:23.244Z,65.10
2022-12-11T22:38:51.355Z,65.10
2022-12-11T22:41:23.374Z,65.10
2022-12-11T22:43:51.439Z,65.00
2022-12-11T22:46:19.864Z,65.00
2022-12-11T22:48:48.038Z,65.10
2022-12-11T22:51:17.475Z,65.10
2022-12-11T22:53:45.785Z,65.30
2022-12-11T22:56:14.022Z,65.00
2022-12-11T22:58:48.468Z,65.10
2022-12-11T23:01:18.812Z,65.10
2022-12-11T23:03:46.962Z,65.10
2022-12-11T23:06:17.677Z,65.00
2022-12-11T23:08:45.969Z,65.10
2022-12-11T23:11:14.408Z,65.00
2022-12-11T23:13:42.580Z,65.00
2022-12-11T23:16:10.951Z,65.30
2022-12-11T23:18:39.441Z,65.10
2022-12-11T23:21:13.841Z,65.00
2022-12-11T23:23:43.289Z,65.10
2022-12-11T23:26:12.236Z,65.10
2022-12-11T23:28:40.566Z,65.10
2022-12-11T23:31:08.935Z,65.10
2022-12-11T23:33:37.123Z,65.10
2022-12-11T23:36:05.534Z,65.10
2022-12-11T23:38:33.613Z,65.10
2022-12-11T23:41:03.220Z,65.10
2022-12-11T23:43:31.326Z,65.10
2022-12-11T23:45:59.464Z,65.10
2022-12-11T23:48:27.543Z,65.10
2022-12-11T23:50:59.526Z,65.10
2022-12-11T23:53:27.698Z,65.10
2022-12-11T23:55:55.842Z,65.10
2022-12-11T23:58:25.261Z,65.00
